| time (UTC) | temp C | wind direction | speed KPH | gust KPH | rain 1hr cm | rain 24hr cm | rain mn cm | humidity % | barometer mb |
| 20260509161543 | 27 | 315 | 6.4 | 14.5 | 0.00 | 0.00 | 0.00 | 65 | 1013.8 |
| 20260509160044 | 26 | 319 | 9.7 | 17.7 | 0.00 | 0.00 | 0.00 | 67 | 1013.7 |
| 20260509154540 | 26 | 319 | 9.7 | 19.3 | 0.00 | 0.00 | 0.00 | 67 | 1013.7 |
| 20260509153043 | 25 | 300 | 8.0 | 20.9 | 0.00 | 0.00 | 0.00 | 71 | 1013.5 |
| 20260509151551 | 25 | 332 | 16.1 | 24.1 | 0.00 | 0.00 | 0.00 | 71 | 1013.4 |
| 20260509150044 | 24 | 315 | 9.7 | 19.3 | 0.00 | 0.00 | 0.00 | 76 | 1013.5 |
| 20260509144600 | 23 | 313 | 11.3 | 20.9 | 0.00 | 0.00 | 0.00 | 77 | 1013.6 |
| 20260509143105 | 23 | 317 | 14.5 | 22.5 | 0.00 | 0.00 | 0.00 | 79 | 1013.5 |
| 20260509141547 | 22 | 306 | 14.5 | 19.3 | 0.00 | 0.00 | 0.00 | 81 | 1013.4 |
| 20260509140054 | 22 | 342 | 14.5 | 22.5 | 0.00 | 0.00 | 0.00 | 82 | 1013.6 |
| 20260509134604 | 22 | 304 | 11.3 | 19.3 | 0.00 | 0.00 | 0.00 | 84 | 1013.4 |
| 20260509133046 | 21 | 322 | 11.3 | 20.9 | 0.00 | 0.00 | 0.00 | 87 | 1013.3 |
| 20260509131539 | 20 | 286 | 8.0 | 16.1 | 0.00 | 0.00 | 0.00 | 90 | 1013.2 |
| 20260509130055 | 21 | 329 | 3.2 | 6.4 | 0.00 | 0.00 | 0.00 | 94 | 1012.9 |
| 20260509124549 | 21 | 0 | 0.0 | 0.0 | 0.00 | 0.00 | 0.00 | 95 | 1012.7 |
| 20260509123101 | 20 | 0 | 0.0 | 0.0 | 0.00 | 0.00 | 0.00 | 94 | 1012.5 |
| 20260509121600 | 20 | 0 | 0.0 | 0.0 | 0.00 | 0.00 | 0.00 | 94 | 1012.9 |
| 20260509120038 | 20 | 0 | 0.0 | 0.0 | 0.00 | 0.00 | 0.00 | 94 | 1012.8 |
| 20260509114540 | 20 | 0 | 0.0 | 0.0 | 0.00 | 0.00 | 0.00 | 94 | 1012.8 |
| 20260509113040 | 20 | 0 | 0.0 | 4.8 | 0.00 | 0.00 | 0.00 | 94 | 1012.8 |
| 20260509111559 | 21 | 323 | 4.8 | 14.5 | 0.00 | 0.00 | 0.00 | 95 | 1012.9 |
| 20260509110045 | 21 | 302 | 8.0 | 19.3 | 0.00 | 0.00 | 0.00 | 95 | 1012.4 |
| 20260509104546 | 20 | 286 | 11.3 | 24.1 | 0.00 | 0.00 | 0.00 | 95 | 1012.3 |
| 20260509103047 | 20 | 182 | 9.7 | 22.5 | 0.00 | 0.00 | 0.00 | 95 | 1011.0 |
| 20260509101616 | 20 | 171 | 12.9 | 20.9 | 0.00 | 0.00 | 0.00 | 95 | 1010.7 |
| 20260509100042 | 20 | 184 | 11.3 | 25.7 | 0.00 | 0.00 | 0.00 | 95 | 1010.5 |
| 20260509094540 | 20 | 196 | 12.9 | 24.1 | 0.00 | 0.00 | 0.00 | 95 | 1010.4 |
| 20260509093042 | 20 | 163 | 11.3 | 20.9 | 0.00 | 0.00 | 0.00 | 95 | 1010.4 |
| 20260509091542 | 20 | 142 | 12.9 | 20.9 | 0.00 | 0.00 | 0.00 | 95 | 1010.8 |
| 20260509090041 | 20 | 175 | 9.7 | 17.7 | 0.00 | 0.00 | 0.00 | 94 | 1011.2 |
| 20260509084539 | 20 | 136 | 8.0 | 17.7 | 0.00 | 0.00 | 0.00 | 94 | 1011.4 |
| 20260509083037 | 20 | 154 | 11.3 | 19.3 | 0.00 | 0.00 | 0.00 | 94 | 1011.8 |
| 20260509081546 | 20 | 166 | 4.8 | 12.9 | 0.00 | 0.00 | 0.00 | 93 | 1012.7 |
| 20260509080041 | 20 | 190 | 6.4 | 14.5 | 0.00 | 0.00 | 0.00 | 93 | 1013.6 |
| 20260509074546 | 20 | 268 | 4.8 | 11.3 | 0.00 | 0.00 | 0.00 | 94 | 1014.9 |
| 20260509073037 | 20 | 267 | 4.8 | 9.7 | 0.00 | 0.00 | 0.00 | 93 | 1014.7 |
| 20260509071545 | 20 | 0 | 0.0 | 0.0 | 0.00 | 0.00 | 0.00 | 93 | 1014.5 |
| 20260509070047 | 20 | 0 | 0.0 | 11.3 | 0.00 | 0.00 | 0.00 | 93 | 1014.1 |
| 20260509064551 | 20 | 323 | 3.2 | 8.0 | 0.00 | 0.00 | 0.00 | 93 | 1014.6 |
| 20260509063044 | 20 | 322 | 3.2 | 8.0 | 0.00 | 0.00 | 0.00 | 92 | 1014.1 |
| 20260509061539 | 20 | 0 | 0.0 | 0.0 | 0.00 | 0.00 | 0.00 | 91 | 1013.8 |
| 20260509060049 | 20 | 0 | 0.0 | 0.0 | 0.00 | 0.00 | 0.00 | 91 | 1013.4 |
| 20260509054558 | 20 | 0 | 0.0 | 0.0 | 0.00 | 0.00 | 0.00 | 91 | 1013.3 |
| 20260509053049 | 20 | 0 | 0.0 | 6.4 | 0.00 | 0.00 | 0.00 | 91 | 1013.3 |
| 20260509051542 | 20 | 146 | 4.8 | 9.7 | 0.00 | 0.00 | 0.00 | 91 | 1013.2 |
| 20260509050040 | 21 | 0 | 0.0 | 0.0 | 0.00 | 0.00 | 0.00 | 90 | 1013.5 |
| 20260509044539 | 21 | 0 | 0.0 | 0.0 | 0.00 | 0.00 | 0.00 | 89 | 1013.7 |
| 20260509043041 | 21 | 0 | 0.0 | 8.0 | 0.00 | 0.00 | 0.00 | 90 | 1013.4 |
| 20260509041609 | 21 | 147 | 1.6 | 6.4 | 0.00 | 0.00 | 0.00 | 89 | 1013.1 |
| 20260509040049 | 21 | 0 | 0.0 | 0.0 | 0.00 | 0.00 | 0.00 | 89 | 1013.3 |
| 20260509034538 | 21 | 0 | 0.0 | 0.0 | 0.00 | 0.00 | 0.00 | 89 | 1013.2 |
| 20260509033039 | 21 | 157 | 0.0 | 8.0 | 0.00 | 0.00 | 0.00 | 88 | 1012.9 |
| 20260509031547 | 22 | 167 | 3.2 | 8.0 | 0.00 | 0.00 | 0.00 | 88 | 1012.8 |
| 20260509030044 | 22 | 140 | 3.2 | 6.4 | 0.00 | 0.00 | 0.00 | 87 | 1012.7 |
| 20260509024541 | 22 | 0 | 0.0 | 0.0 | 0.00 | 0.00 | 0.00 | 87 | 1012.9 |
| 20260509023046 | 22 | 0 | 1.6 | 6.4 | 0.00 | 0.00 | 0.00 | 87 | 1012.5 |
| 20260509021538 | 22 | 167 | 1.6 | 4.8 | 0.00 | 0.00 | 0.00 | 86 | 1012.2 |
| 20260509020048 | 22 | 0 | 1.6 | 8.0 | 0.00 | 0.00 | 0.00 | 85 | 1012.2 |
| 20260509014540 | 22 | 0 | 0.0 | 0.0 | 0.00 | 0.00 | 0.00 | 85 | 1011.9 |
| 20260509013046 | 22 | 0 | 0.0 | 0.0 | 0.00 | 0.00 | 0.00 | 84 | 1011.9 |
| 20260509011543 | 22 | 0 | 0.0 | 3.2 | 0.00 | 0.00 | 0.00 | 84 | 1011.8 |
| 20260509010041 | 22 | 151 | 3.2 | 6.4 | 0.00 | 0.00 | 0.00 | 84 | 1011.5 |
| 20260509004542 | 23 | 142 | 1.6 | 8.0 | 0.00 | 0.00 | 0.00 | 83 | 1011.7 |
| 20260509003047 | 23 | 166 | 4.8 | 11.3 | 0.00 | 0.00 | 0.00 | 83 | 1011.5 |
| 20260509001545 | 23 | 132 | 8.0 | 14.5 | 0.00 | 0.00 | 0.00 | 82 | 1011.6 |
| 20260509000042 | 23 | 120 | 4.8 | 14.5 | 0.00 | 0.00 | 0.00 | 81 | 1011.6 |
| 20260508234541 | 23 | 166 | 8.0 | 14.5 | 0.00 | 0.00 | 0.00 | 81 | 1011.5 |
| 20260508233039 | 23 | 116 | 6.4 | 14.5 | 0.00 | 0.00 | 0.00 | 81 | 1011.4 |
| 20260508231537 | 23 | 153 | 12.9 | 20.9 | 0.00 | 0.00 | 0.00 | 81 | 1011.6 |
| 20260508230048 | 23 | 165 | 11.3 | 22.5 | 0.00 | 0.00 | 0.00 | 81 | 1011.5 |
| 20260508224546 | 23 | 161 | 9.7 | 19.3 | 0.00 | 0.00 | 0.00 | 82 | 1011.7 |
| 20260508223042 | 23 | 190 | 12.9 | 20.9 | 0.00 | 0.00 | 0.00 | 81 | 1011.7 |
| 20260508221541 | 22 | 111 | 3.2 | 12.9 | 0.00 | 0.00 | 0.00 | 83 | 1012.0 |
| 20260508220039 | 22 | 143 | 4.8 | 19.3 | 0.00 | 0.00 | 0.00 | 82 | 1012.3 |
| 20260508214537 | 22 | 184 | 4.8 | 16.1 | 0.00 | 0.00 | 0.00 | 83 | 1012.6 |
| 20260508213041 | 22 | 132 | 6.4 | 25.7 | 0.00 | 0.00 | 0.00 | 82 | 1012.2 |
| 20260508211545 | 21 | 132 | 11.3 | 20.9 | 0.00 | 0.00 | 0.00 | 82 | 1012.2 |
| 20260508210045 | 21 | 113 | 9.7 | 25.7 | 0.00 | 0.00 | 0.00 | 83 | 1012.5 |
| 20260508204544 | 20 | 133 | 6.4 | 16.1 | 0.00 | 0.00 | 0.00 | 83 | 1012.9 |
| 20260508203047 | 20 | 138 | 6.4 | 14.5 | 0.00 | 0.00 | 0.00 | 82 | 1013.5 |
| 20260508201548 | 20 | 160 | 6.4 | 12.9 | 0.00 | 0.00 | 0.00 | 80 | 1014.3 |
| 20260508200105 | 20 | 191 | 6.4 | 20.9 | 0.00 | 0.00 | 0.00 | 80 | 1014.3 |
| 20260508194543 | 21 | 182 | 8.0 | 14.5 | 0.00 | 0.00 | 0.00 | 77 | 1014.6 |
| 20260508193053 | 20 | 123 | 8.0 | 14.5 | 0.00 | 0.00 | 0.00 | 79 | 1014.0 |
| 20260508191545 | 21 | 157 | 11.3 | 20.9 | 0.00 | 0.00 | 0.00 | 78 | 1014.3 |
| 20260508190047 | 21 | 173 | 11.3 | 20.9 | 0.00 | 0.00 | 0.00 | 78 | 1014.6 |
| 20260508184551 | 20 | 145 | 11.3 | 19.3 | 0.00 | 0.00 | 0.00 | 78 | 1014.6 |
| 20260508183107 | 20 | 161 | 8.0 | 14.5 | 0.00 | 0.00 | 0.00 | 79 | 1015.0 |
| 20260508181601 | 20 | 136 | 9.7 | 17.7 | 0.00 | 0.00 | 0.00 | 77 | 1015.4 |
| 20260508180042 | 20 | 122 | 11.3 | 17.7 | 0.00 | 0.00 | 0.00 | 75 | 1015.6 |
| 20260508174537 | 21 | 142 | 9.7 | 16.1 | 0.00 | 0.00 | 0.00 | 73 | 1015.5 |
| 20260508173036 | 21 | 150 | 6.4 | 14.5 | 0.00 | 0.00 | 0.00 | 77 | 1015.4 |
| 20260508171545 | 20 | 76 | 8.0 | 16.1 | 0.00 | 0.00 | 0.00 | 76 | 1015.8 |
| 20260508170052 | 20 | 136 | 8.0 | 20.9 | 0.00 | 0.00 | 0.00 | 76 | 1016.1 |
| 20260508164546 | 20 | 121 | 4.8 | 17.7 | 0.00 | 0.00 | 0.00 | 77 | 1016.2 |
| 20260508163037 | 20 | 113 | 6.4 | 16.1 | 0.00 | 0.00 | 0.00 | 80 | 1016.3 |